sensor_id;sensor_type;location;lat;lon;timestamp;P1;durP1;ratioP1;P2;durP2;ratioP2
11191;SDS011;5652;48.406;10.820;2023-12-22T00:01:36;2.00;;;1.08;;
11191;SDS011;5652;48.406;10.820;2023-12-22T00:04:04;1.65;;;1.13;;
11191;SDS011;5652;48.406;10.820;2023-12-22T00:06:31;3.10;;;1.30;;
11191;SDS011;5652;48.406;10.820;2023-12-22T00:08:59;1.90;;;1.20;;
11191;SDS011;5652;48.406;10.820;2023-12-22T00:11:27;1.58;;;1.10;;
11191;SDS011;5652;48.406;10.820;2023-12-22T00:13:54;2.47;;;1.05;;
11191;SDS011;5652;48.406;10.820;2023-12-22T00:16:21;1.70;;;1.00;;
11191;SDS011;5652;48.406;10.820;2023-12-22T00:18:49;2.10;;;0.90;;
11191;SDS011;5652;48.406;10.820;2023-12-22T00:21:17;1.23;;;1.00;;
11191;SDS011;5652;48.406;10.820;2023-12-22T00:23:44;0.73;;;0.73;;
11191;SDS011;5652;48.406;10.820;2023-12-22T00:26:11;1.23;;;1.00;;
11191;SDS011;5652;48.406;10.820;2023-12-22T00:28:41;1.55;;;1.05;;
11191;SDS011;5652;48.406;10.820;2023-12-22T00:31:09;1.15;;;0.80;;
11191;SDS011;5652;48.406;10.820;2023-12-22T00:33:37;1.00;;;0.80;;
11191;SDS011;5652;48.406;10.820;2023-12-22T00:36:04;1.80;;;0.90;;
11191;SDS011;5652;48.406;10.820;2023-12-22T00:38:31;1.58;;;0.85;;
11191;SDS011;5652;48.406;10.820;2023-12-22T00:40:59;1.13;;;0.88;;
11191;SDS011;5652;48.406;10.820;2023-12-22T00:43:26;1.15;;;1.00;;
11191;SDS011;5652;48.406;10.820;2023-12-22T00:45:53;1.10;;;0.95;;
11191;SDS011;5652;48.406;10.820;2023-12-22T00:48:22;1.40;;;1.05;;
11191;SDS011;5652;48.406;10.820;2023-12-22T00:50:49;1.05;;;0.90;;
11191;SDS011;5652;48.406;10.820;2023-12-22T00:53:16;1.10;;;1.00;;
11191;SDS011;5652;48.406;10.820;2023-12-22T00:55:43;1.00;;;1.00;;
11191;SDS011;5652;48.406;10.820;2023-12-22T00:58:10;1.83;;;1.27;;
11191;SDS011;5652;48.406;10.820;2023-12-22T01:00:38;1.50;;;1.00;;
11191;SDS011;5652;48.406;10.820;2023-12-22T01:03:06;2.00;;;1.20;;
11191;SDS011;5652;48.406;10.820;2023-12-22T01:05:33;1.10;;;1.00;;
11191;SDS011;5652;48.406;10.820;2023-12-22T01:08:00;1.30;;;1.00;;
11191;SDS011;5652;48.406;10.820;2023-12-22T01:10:27;1.10;;;1.00;;
11191;SDS011;5652;48.406;10.820;2023-12-22T01:12:54;1.33;;;1.00;;
11191;SDS011;5652;48.406;10.820;2023-12-22T01:15:22;1.05;;;0.93;;
11191;SDS011;5652;48.406;10.820;2023-12-22T01:17:49;1.60;;;1.10;;
11191;SDS011;5652;48.406;10.820;2023-12-22T01:20:17;0.60;;;0.60;;
11191;SDS011;5652;48.406;10.820;2023-12-22T01:22:44;0.80;;;0.80;;
11191;SDS011;5652;48.406;10.820;2023-12-22T01:25:11;1.20;;;1.10;;
11191;SDS011;5652;48.406;10.820;2023-12-22T01:27:38;0.90;;;0.90;;
11191;SDS011;5652;48.406;10.820;2023-12-22T01:30:06;2.07;;;0.97;;
11191;SDS011;5652;48.406;10.820;2023-12-22T01:32:33;1.67;;;0.90;;
11191;SDS011;5652;48.406;10.820;2023-12-22T01:35:01;1.00;;;0.90;;
11191;SDS011;5652;48.406;10.820;2023-12-22T01:37:35;0.77;;;0.77;;
11191;SDS011;5652;48.406;10.820;2023-12-22T01:40:03;1.63;;;0.82;;
11191;SDS011;5652;48.406;10.820;2023-12-22T01:42:30;1.05;;;0.70;;
11191;SDS011;5652;48.406;10.820;2023-12-22T01:44:57;1.03;;;0.90;;
11191;SDS011;5652;48.406;10.820;2023-12-22T01:47:24;1.33;;;0.90;;
11191;SDS011;5652;48.406;10.820;2023-12-22T01:49:52;0.88;;;0.77;;
11191;SDS011;5652;48.406;10.820;2023-12-22T01:52:19;1.08;;;0.90;;
11191;SDS011;5652;48.406;10.820;2023-12-22T01:54:48;0.65;;;0.60;;
11191;SDS011;5652;48.406;10.820;2023-12-22T01:57:16;0.88;;;0.80;;
11191;SDS011;5652;48.406;10.820;2023-12-22T01:59:44;0.98;;;0.90;;
11191;SDS011;5652;48.406;10.820;2023-12-22T02:02:11;0.70;;;0.70;;
11191;SDS011;5652;48.406;10.820;2023-12-22T02:04:38;1.38;;;0.80;;
11191;SDS011;5652;48.406;10.820;2023-12-22T02:07:06;0.88;;;0.80;;
11191;SDS011;5652;48.406;10.820;2023-12-22T02:09:35;1.40;;;0.70;;
11191;SDS011;5652;48.406;10.820;2023-12-22T02:12:04;0.80;;;0.80;;
11191;SDS011;5652;48.406;10.820;2023-12-22T02:14:32;0.70;;;0.70;;
11191;SDS011;5652;48.406;10.820;2023-12-22T02:17:02;0.60;;;0.60;;
11191;SDS011;5652;48.406;10.820;2023-12-22T02:19:37;0.70;;;0.70;;
11191;SDS011;5652;48.406;10.820;2023-12-22T02:22:07;0.68;;;0.68;;
11191;SDS011;5652;48.406;10.820;2023-12-22T02:24:36;0.88;;;0.77;;
11191;SDS011;5652;48.406;10.820;2023-12-22T02:27:04;0.60;;;0.60;;
11191;SDS011;5652;48.406;10.820;2023-12-22T02:29:32;0.80;;;0.60;;
11191;SDS011;5652;48.406;10.820;2023-12-22T02:32:02;1.80;;;0.75;;
11191;SDS011;5652;48.406;10.820;2023-12-22T02:34:30;0.70;;;0.70;;
11191;SDS011;5652;48.406;10.820;2023-12-22T02:36:57;0.82;;;0.70;;
11191;SDS011;5652;48.406;10.820;2023-12-22T02:39:25;0.65;;;0.65;;
11191;SDS011;5652;48.406;10.820;2023-12-22T02:41:53;0.65;;;0.65;;
11191;SDS011;5652;48.406;10.820;2023-12-22T02:44:21;0.80;;;0.80;;
11191;SDS011;5652;48.406;10.820;2023-12-22T02:46:48;1.10;;;0.75;;
11191;SDS011;5652;48.406;10.820;2023-12-22T02:49:15;1.00;;;0.90;;
11191;SDS011;5652;48.406;10.820;2023-12-22T02:51:43;1.50;;;0.90;;
11191;SDS011;5652;48.406;10.820;2023-12-22T02:54:10;1.00;;;0.80;;
11191;SDS011;5652;48.406;10.820;2023-12-22T02:56:38;0.60;;;0.60;;
11191;SDS011;5652;48.406;10.820;2023-12-22T02:59:09;1.63;;;0.60;;
11191;SDS011;5652;48.406;10.820;2023-12-22T03:01:36;0.70;;;0.60;;
11191;SDS011;5652;48.406;10.820;2023-12-22T03:04:03;1.10;;;1.00;;
11191;SDS011;5652;48.406;10.820;2023-12-22T03:06:30;0.80;;;0.80;;
11191;SDS011;5652;48.406;10.820;2023-12-22T03:08:57;1.13;;;0.80;;
11191;SDS011;5652;48.406;10.820;2023-12-22T03:11:24;1.45;;;0.70;;
11191;SDS011;5652;48.406;10.820;2023-12-22T03:13:51;0.70;;;0.70;;
11191;SDS011;5652;48.406;10.820;2023-12-22T03:16:20;0.65;;;0.65;;
11191;SDS011;5652;48.406;10.820;2023-12-22T03:18:47;1.20;;;0.70;;
11191;SDS011;5652;48.406;10.820;2023-12-22T03:21:16;0.70;;;0.70;;
11191;SDS011;5652;48.406;10.820;2023-12-22T03:23:44;1.00;;;0.90;;
11191;SDS011;5652;48.406;10.820;2023-12-22T03:26:11;1.52;;;0.98;;
11191;SDS011;5652;48.406;10.820;2023-12-22T03:28:38;2.50;;;1.30;;
11191;SDS011;5652;48.406;10.820;2023-12-22T03:31:05;3.58;;;1.50;;
11191;SDS011;5652;48.406;10.820;2023-12-22T03:33:34;3.70;;;1.50;;
11191;SDS011;5652;48.406;10.820;2023-12-22T03:36:01;4.63;;;1.58;;
11191;SDS011;5652;48.406;10.820;2023-12-22T03:38:28;2.50;;;1.30;;
11191;SDS011;5652;48.406;10.820;2023-12-22T03:40:55;3.10;;;1.60;;
11191;SDS011;5652;48.406;10.820;2023-12-22T03:43:22;2.67;;;1.42;;
11191;SDS011;5652;48.406;10.820;2023-12-22T03:45:49;4.10;;;1.70;;
11191;SDS011;5652;48.406;10.820;2023-12-22T03:48:16;3.08;;;1.73;;
11191;SDS011;5652;48.406;10.820;2023-12-22T03:50:45;2.90;;;1.43;;
11191;SDS011;5652;48.406;10.820;2023-12-22T03:53:12;3.80;;;1.42;;
11191;SDS011;5652;48.406;10.820;2023-12-22T03:55:39;2.13;;;1.25;;
11191;SDS011;5652;48.406;10.820;2023-12-22T03:58:06;2.67;;;1.50;;
11191;SDS011;5652;48.406;10.820;2023-12-22T04:00:35;5.10;;;1.70;;
11191;SDS011;5652;48.406;10.820;2023-12-22T04:03:02;3.20;;;1.20;;
11191;SDS011;5652;48.406;10.820;2023-12-22T04:05:29;4.07;;;1.20;;
11191;SDS011;5652;48.406;10.820;2023-12-22T04:07:58;2.85;;;1.50;;
11191;SDS011;5652;48.406;10.820;2023-12-22T04:10:25;3.40;;;1.38;;
11191;SDS011;5652;48.406;10.820;2023-12-22T04:12:52;3.90;;;1.50;;
11191;SDS011;5652;48.406;10.820;2023-12-22T04:15:19;4.47;;;1.42;;
11191;SDS011;5652;48.406;10.820;2023-12-22T04:17:46;3.28;;;1.30;;
11191;SDS011;5652;48.406;10.820;2023-12-22T04:20:14;2.03;;;1.20;;
11191;SDS011;5652;48.406;10.820;2023-12-22T04:22:41;5.00;;;1.42;;
11191;SDS011;5652;48.406;10.820;2023-12-22T04:25:10;3.67;;;1.58;;
11191;SDS011;5652;48.406;10.820;2023-12-22T04:27:37;3.63;;;1.30;;
11191;SDS011;5652;48.406;10.820;2023-12-22T04:30:05;3.95;;;1.20;;
11191;SDS011;5652;48.406;10.820;2023-12-22T04:32:32;2.75;;;1.23;;
11191;SDS011;5652;48.406;10.820;2023-12-22T04:34:59;2.95;;;1.20;;
11191;SDS011;5652;48.406;10.820;2023-12-22T04:37:26;2.42;;;1.30;;
11191;SDS011;5652;48.406;10.820;2023-12-22T04:39:53;2.22;;;1.10;;
11191;SDS011;5652;48.406;10.820;2023-12-22T04:42:22;2.38;;;1.20;;
11191;SDS011;5652;48.406;10.820;2023-12-22T04:44:50;3.00;;;1.38;;
11191;SDS011;5652;48.406;10.820;2023-12-22T04:47:17;3.20;;;1.45;;
11191;SDS011;5652;48.406;10.820;2023-12-22T04:49:45;3.17;;;1.33;;
11191;SDS011;5652;48.406;10.820;2023-12-22T04:52:12;4.27;;;1.67;;
11191;SDS011;5652;48.406;10.820;2023-12-22T04:54:39;4.22;;;1.50;;
11191;SDS011;5652;48.406;10.820;2023-12-22T04:57:06;4.28;;;1.70;;
11191;SDS011;5652;48.406;10.820;2023-12-22T04:59:35;3.63;;;1.70;;
11191;SDS011;5652;48.406;10.820;2023-12-22T05:02:02;2.60;;;1.30;;
11191;SDS011;5652;48.406;10.820;2023-12-22T05:04:29;3.72;;;1.52;;
11191;SDS011;5652;48.406;10.820;2023-12-22T05:06:56;3.25;;;1.60;;
11191;SDS011;5652;48.406;10.820;2023-12-22T05:09:23;2.17;;;1.30;;
11191;SDS011;5652;48.406;10.820;2023-12-22T05:11:50;2.75;;;1.35;;
11191;SDS011;5652;48.406;10.820;2023-12-22T05:14:17;4.20;;;1.50;;
11191;SDS011;5652;48.406;10.820;2023-12-22T05:16:46;3.85;;;1.60;;
11191;SDS011;5652;48.406;10.820;2023-12-22T05:19:13;3.33;;;1.50;;
11191;SDS011;5652;48.406;10.820;2023-12-22T05:21:40;3.55;;;1.58;;
11191;SDS011;5652;48.406;10.820;2023-12-22T05:24:07;7.18;;;1.30;;
11191;SDS011;5652;48.406;10.820;2023-12-22T05:26:34;2.70;;;1.20;;
11191;SDS011;5652;48.406;10.820;2023-12-22T05:29:01;3.53;;;1.40;;
11191;SDS011;5652;48.406;10.820;2023-12-22T05:31:28;2.20;;;1.00;;
11191;SDS011;5652;48.406;10.820;2023-12-22T05:33:59;2.67;;;1.30;;
11191;SDS011;5652;48.406;10.820;2023-12-22T05:36:26;2.03;;;1.20;;
11191;SDS011;5652;48.406;10.820;2023-12-22T05:38:53;2.65;;;1.23;;
11191;SDS011;5652;48.406;10.820;2023-12-22T05:41:20;1.63;;;1.23;;
11191;SDS011;5652;48.406;10.820;2023-12-22T05:43:47;1.60;;;1.13;;
11191;SDS011;5652;48.406;10.820;2023-12-22T05:46:14;1.88;;;1.20;;
11191;SDS011;5652;48.406;10.820;2023-12-22T05:48:41;2.90;;;1.30;;
11191;SDS011;5652;48.406;10.820;2023-12-22T05:51:10;2.47;;;1.30;;
11191;SDS011;5652;48.406;10.820;2023-12-22T05:53:38;3.10;;;1.65;;
11191;SDS011;5652;48.406;10.820;2023-12-22T05:56:16;4.03;;;1.50;;
11191;SDS011;5652;48.406;10.820;2023-12-22T05:58:43;2.92;;;1.30;;
11191;SDS011;5652;48.406;10.820;2023-12-22T06:01:13;3.40;;;1.60;;
11191;SDS011;5652;48.406;10.820;2023-12-22T06:03:40;3.08;;;1.35;;
11191;SDS011;5652;48.406;10.820;2023-12-22T06:06:07;5.57;;;1.80;;
11191;SDS011;5652;48.406;10.820;2023-12-22T06:08:36;4.70;;;1.38;;
11191;SDS011;5652;48.406;10.820;2023-12-22T06:11:03;3.13;;;1.48;;
11191;SDS011;5652;48.406;10.820;2023-12-22T06:13:31;4.82;;;1.73;;
11191;SDS011;5652;48.406;10.820;2023-12-22T06:15:58;4.63;;;1.90;;
11191;SDS011;5652;48.406;10.820;2023-12-22T06:18:24;6.82;;;1.88;;
11191;SDS011;5652;48.406;10.820;2023-12-22T06:20:51;5.03;;;1.83;;
11191;SDS011;5652;48.406;10.820;2023-12-22T06:23:19;3.90;;;1.70;;
11191;SDS011;5652;48.406;10.820;2023-12-22T06:25:48;6.50;;;1.90;;
11191;SDS011;5652;48.406;10.820;2023-12-22T06:28:15;4.53;;;1.85;;
11191;SDS011;5652;48.406;10.820;2023-12-22T06:30:42;4.00;;;1.67;;
11191;SDS011;5652;48.406;10.820;2023-12-22T06:33:12;3.92;;;1.70;;
11191;SDS011;5652;48.406;10.820;2023-12-22T06:35:39;3.53;;;1.60;;
11191;SDS011;5652;48.406;10.820;2023-12-22T06:38:06;3.90;;;1.80;;
11191;SDS011;5652;48.406;10.820;2023-12-22T06:40:36;6.45;;;2.00;;
11191;SDS011;5652;48.406;10.820;2023-12-22T06:43:05;3.42;;;1.70;;
11191;SDS011;5652;48.406;10.820;2023-12-22T06:45:32;5.65;;;1.83;;
11191;SDS011;5652;48.406;10.820;2023-12-22T06:47:59;4.47;;;1.80;;
11191;SDS011;5652;48.406;10.820;2023-12-22T06:50:26;3.70;;;1.85;;
11191;SDS011;5652;48.406;10.820;2023-12-22T06:52:53;4.50;;;2.00;;
11191;SDS011;5652;48.406;10.820;2023-12-22T06:55:20;6.45;;;1.83;;
11191;SDS011;5652;48.406;10.820;2023-12-22T06:57:48;5.05;;;1.80;;
11191;SDS011;5652;48.406;10.820;2023-12-22T07:00:16;3.10;;;1.33;;
11191;SDS011;5652;48.406;10.820;2023-12-22T07:02:44;6.18;;;1.77;;
11191;SDS011;5652;48.406;10.820;2023-12-22T07:08:06;5.57;;;2.00;;
11191;SDS011;5652;48.406;10.820;2023-12-22T07:10:33;5.22;;;2.00;;
11191;SDS011;5652;48.406;10.820;2023-12-22T07:13:00;5.70;;;1.92;;
11191;SDS011;5652;48.406;10.820;2023-12-22T07:15:28;4.22;;;1.77;;
11191;SDS011;5652;48.406;10.820;2023-12-22T07:17:55;5.67;;;2.03;;
11191;SDS011;5652;48.406;10.820;2023-12-22T07:20:23;5.22;;;1.67;;
11191;SDS011;5652;48.406;10.820;2023-12-22T07:22:50;4.85;;;1.95;;
11191;SDS011;5652;48.406;10.820;2023-12-22T07:25:19;4.00;;;1.58;;
11191;SDS011;5652;48.406;10.820;2023-12-22T07:27:46;5.35;;;1.80;;
11191;SDS011;5652;48.406;10.820;2023-12-22T07:30:13;6.05;;;1.95;;
11191;SDS011;5652;48.406;10.820;2023-12-22T07:32:46;5.38;;;2.00;;
11191;SDS011;5652;48.406;10.820;2023-12-22T07:35:17;7.15;;;2.78;;
11191;SDS011;5652;48.406;10.820;2023-12-22T07:37:44;8.48;;;2.42;;
11191;SDS011;5652;48.406;10.820;2023-12-22T07:40:11;6.20;;;2.03;;
11191;SDS011;5652;48.406;10.820;2023-12-22T07:42:38;6.60;;;2.00;;
11191;SDS011;5652;48.406;10.820;2023-12-22T07:45:06;2.83;;;1.52;;
11191;SDS011;5652;48.406;10.820;2023-12-22T07:47:34;5.78;;;1.77;;
11191;SDS011;5652;48.406;10.820;2023-12-22T07:50:04;3.97;;;1.63;;
11191;SDS011;5652;48.406;10.820;2023-12-22T07:52:34;5.83;;;2.10;;
11191;SDS011;5652;48.406;10.820;2023-12-22T07:55:04;5.78;;;2.10;;
11191;SDS011;5652;48.406;10.820;2023-12-22T07:57:31;6.93;;;2.33;;
11191;SDS011;5652;48.406;10.820;2023-12-22T07:59:58;4.40;;;1.90;;
11191;SDS011;5652;48.406;10.820;2023-12-22T08:02:27;5.53;;;1.80;;
11191;SDS011;5652;48.406;10.820;2023-12-22T08:04:54;5.40;;;2.08;;
11191;SDS011;5652;48.406;10.820;2023-12-22T08:07:22;7.25;;;2.40;;
11191;SDS011;5652;48.406;10.820;2023-12-22T08:09:49;6.70;;;2.45;;
11191;SDS011;5652;48.406;10.820;2023-12-22T08:12:17;6.63;;;2.10;;
11191;SDS011;5652;48.406;10.820;2023-12-22T08:14:44;5.82;;;2.28;;
11191;SDS011;5652;48.406;10.820;2023-12-22T08:17:11;6.93;;;2.17;;
11191;SDS011;5652;48.406;10.820;2023-12-22T08:19:39;5.72;;;2.20;;
11191;SDS011;5652;48.406;10.820;2023-12-22T08:22:07;5.07;;;1.70;;
11191;SDS011;5652;48.406;10.820;2023-12-22T08:24:36;7.03;;;1.65;;
11191;SDS011;5652;48.406;10.820;2023-12-22T08:27:04;5.00;;;1.83;;
11191;SDS011;5652;48.406;10.820;2023-12-22T08:29:31;3.03;;;1.45;;
11191;SDS011;5652;48.406;10.820;2023-12-22T08:31:59;2.70;;;1.30;;
11191;SDS011;5652;48.406;10.820;2023-12-22T08:34:26;2.77;;;1.43;;
11191;SDS011;5652;48.406;10.820;2023-12-22T08:36:53;3.75;;;1.70;;
11191;SDS011;5652;48.406;10.820;2023-12-22T08:39:20;5.13;;;1.83;;
11191;SDS011;5652;48.406;10.820;2023-12-22T08:41:50;3.75;;;1.40;;
11191;SDS011;5652;48.406;10.820;2023-12-22T08:44:18;3.95;;;1.50;;
11191;SDS011;5652;48.406;10.820;2023-12-22T08:46:45;3.90;;;1.60;;
11191;SDS011;5652;48.406;10.820;2023-12-22T08:49:12;3.10;;;1.45;;
11191;SDS011;5652;48.406;10.820;2023-12-22T08:51:39;5.28;;;1.63;;
11191;SDS011;5652;48.406;10.820;2023-12-22T08:54:06;3.63;;;1.70;;
11191;SDS011;5652;48.406;10.820;2023-12-22T08:56:34;2.90;;;1.40;;
11191;SDS011;5652;48.406;10.820;2023-12-22T08:59:05;5.20;;;1.77;;
11191;SDS011;5652;48.406;10.820;2023-12-22T09:01:34;4.05;;;1.60;;
11191;SDS011;5652;48.406;10.820;2023-12-22T09:04:01;5.90;;;2.10;;
11191;SDS011;5652;48.406;10.820;2023-12-22T09:06:28;6.38;;;2.08;;
11191;SDS011;5652;48.406;10.820;2023-12-22T09:08:55;6.53;;;2.00;;
11191;SDS011;5652;48.406;10.820;2023-12-22T09:11:23;6.30;;;2.28;;
11191;SDS011;5652;48.406;10.820;2023-12-22T09:13:50;3.60;;;1.53;;
11191;SDS011;5652;48.406;10.820;2023-12-22T09:16:21;3.33;;;1.60;;
11191;SDS011;5652;48.406;10.820;2023-12-22T09:18:50;4.38;;;1.60;;
11191;SDS011;5652;48.406;10.820;2023-12-22T09:21:17;3.20;;;1.63;;
11191;SDS011;5652;48.406;10.820;2023-12-22T09:23:45;5.30;;;1.90;;
11191;SDS011;5652;48.406;10.820;2023-12-22T09:26:13;5.55;;;1.80;;
11191;SDS011;5652;48.406;10.820;2023-12-22T09:28:40;3.10;;;1.50;;
11191;SDS011;5652;48.406;10.820;2023-12-22T09:31:07;4.43;;;1.80;;
11191;SDS011;5652;48.406;10.820;2023-12-22T09:33:36;2.22;;;1.10;;
11191;SDS011;5652;48.406;10.820;2023-12-22T09:36:03;2.90;;;1.10;;
11191;SDS011;5652;48.406;10.820;2023-12-22T09:38:30;2.00;;;1.13;;
11191;SDS011;5652;48.406;10.820;2023-12-22T09:40:57;0.40;;;0.40;;
11191;SDS011;5652;48.406;10.820;2023-12-22T09:43:25;0.40;;;0.40;;
11191;SDS011;5652;48.406;10.820;2023-12-22T09:45:52;0.40;;;0.40;;
11191;SDS011;5652;48.406;10.820;2023-12-22T09:48:20;0.40;;;0.40;;
11191;SDS011;5652;48.406;10.820;2023-12-22T09:50:54;0.50;;;0.50;;
11191;SDS011;5652;48.406;10.820;2023-12-22T09:53:21;0.50;;;0.50;;
11191;SDS011;5652;48.406;10.820;2023-12-22T09:55:48;0.50;;;0.50;;
11191;SDS011;5652;48.406;10.820;2023-12-22T09:58:16;0.40;;;0.40;;
11191;SDS011;5652;48.406;10.820;2023-12-22T10:00:43;0.65;;;0.50;;
11191;SDS011;5652;48.406;10.820;2023-12-22T10:03:11;0.40;;;0.40;;
11191;SDS011;5652;48.406;10.820;2023-12-22T10:05:39;0.40;;;0.40;;
11191;SDS011;5652;48.406;10.820;2023-12-22T10:08:09;0.40;;;0.40;;
11191;SDS011;5652;48.406;10.820;2023-12-22T10:10:38;0.60;;;0.60;;
11191;SDS011;5652;48.406;10.820;2023-12-22T10:13:05;0.40;;;0.40;;
11191;SDS011;5652;48.406;10.820;2023-12-22T10:15:35;0.40;;;0.40;;
11191;SDS011;5652;48.406;10.820;2023-12-22T10:18:03;0.40;;;0.40;;
11191;SDS011;5652;48.406;10.820;2023-12-22T10:20:30;1.50;;;0.60;;
11191;SDS011;5652;48.406;10.820;2023-12-22T10:22:58;0.50;;;0.50;;
11191;SDS011;5652;48.406;10.820;2023-12-22T10:25:28;0.95;;;0.55;;
11191;SDS011;5652;48.406;10.820;2023-12-22T10:27:56;0.60;;;0.60;;
11191;SDS011;5652;48.406;10.820;2023-12-22T10:30:23;0.50;;;0.50;;
11191;SDS011;5652;48.406;10.820;2023-12-22T10:32:50;0.52;;;0.52;;
11191;SDS011;5652;48.406;10.820;2023-12-22T10:35:17;0.55;;;0.55;;
11191;SDS011;5652;48.406;10.820;2023-12-22T10:37:45;0.80;;;0.80;;
11191;SDS011;5652;48.406;10.820;2023-12-22T10:40:13;0.63;;;0.63;;
11191;SDS011;5652;48.406;10.820;2023-12-22T10:42:41;0.40;;;0.40;;
11191;SDS011;5652;48.406;10.820;2023-12-22T10:45:09;0.60;;;0.60;;
11191;SDS011;5652;48.406;10.820;2023-12-22T10:47:37;0.45;;;0.45;;
11191;SDS011;5652;48.406;10.820;2023-12-22T10:50:05;1.00;;;1.00;;
11191;SDS011;5652;48.406;10.820;2023-12-22T10:52:33;1.92;;;1.15;;
11191;SDS011;5652;48.406;10.820;2023-12-22T10:55:00;0.80;;;0.80;;
11191;SDS011;5652;48.406;10.820;2023-12-22T10:57:28;1.45;;;1.17;;
11191;SDS011;5652;48.406;10.820;2023-12-22T10:59:56;0.57;;;0.57;;
11191;SDS011;5652;48.406;10.820;2023-12-22T11:02:25;1.00;;;1.00;;
11191;SDS011;5652;48.406;10.820;2023-12-22T11:04:55;1.60;;;0.70;;
11191;SDS011;5652;48.406;10.820;2023-12-22T11:07:24;1.50;;;0.40;;
11191;SDS011;5652;48.406;10.820;2023-12-22T11:09:51;0.50;;;0.50;;
11191;SDS011;5652;48.406;10.820;2023-12-22T11:12:18;0.98;;;0.95;;
11191;SDS011;5652;48.406;10.820;2023-12-22T11:14:46;0.43;;;0.43;;
11191;SDS011;5652;48.406;10.820;2023-12-22T11:17:18;1.40;;;0.65;;
11191;SDS011;5652;48.406;10.820;2023-12-22T11:19:47;1.35;;;0.75;;
11191;SDS011;5652;48.406;10.820;2023-12-22T11:22:14;0.40;;;0.40;;
11191;SDS011;5652;48.406;10.820;2023-12-22T11:24:43;5.45;;;2.00;;
11191;SDS011;5652;48.406;10.820;2023-12-22T11:27:11;5.83;;;1.80;;
11191;SDS011;5652;48.406;10.820;2023-12-22T11:29:39;5.82;;;1.95;;
11191;SDS011;5652;48.406;10.820;2023-12-22T11:32:07;7.97;;;2.45;;
11191;SDS011;5652;48.406;10.820;2023-12-22T11:34:37;5.67;;;2.20;;
11191;SDS011;5652;48.406;10.820;2023-12-22T11:37:05;7.10;;;2.20;;
11191;SDS011;5652;48.406;10.820;2023-12-22T11:39:33;6.15;;;1.92;;
11191;SDS011;5652;48.406;10.820;2023-12-22T11:42:00;6.43;;;2.00;;
11191;SDS011;5652;48.406;10.820;2023-12-22T11:44:28;5.30;;;1.80;;
11191;SDS011;5652;48.406;10.820;2023-12-22T11:47:05;6.10;;;2.40;;
11191;SDS011;5652;48.406;10.820;2023-12-22T11:49:33;4.43;;;1.88;;
11191;SDS011;5652;48.406;10.820;2023-12-22T11:52:10;5.78;;;1.98;;
11191;SDS011;5652;48.406;10.820;2023-12-22T11:54:43;5.38;;;2.00;;
11191;SDS011;5652;48.406;10.820;2023-12-22T11:59:52;6.93;;;2.10;;
11191;SDS011;5652;48.406;10.820;2023-12-22T12:02:19;6.20;;;2.00;;
11191;SDS011;5652;48.406;10.820;2023-12-22T12:04:47;6.63;;;2.10;;
11191;SDS011;5652;48.406;10.820;2023-12-22T12:10:01;0.40;;;0.40;;
11191;SDS011;5652;48.406;10.820;2023-12-22T12:12:28;0.70;;;0.60;;
11191;SDS011;5652;48.406;10.820;2023-12-22T12:14:59;3.05;;;0.90;;
11191;SDS011;5652;48.406;10.820;2023-12-22T12:17:33;0.40;;;0.40;;
11191;SDS011;5652;48.406;10.820;2023-12-22T12:20:01;1.10;;;1.10;;
11191;SDS011;5652;48.406;10.820;2023-12-22T12:22:28;0.98;;;0.88;;
11191;SDS011;5652;48.406;10.820;2023-12-22T12:24:56;0.60;;;0.60;;
11191;SDS011;5652;48.406;10.820;2023-12-22T12:27:25;2.10;;;0.70;;
11191;SDS011;5652;48.406;10.820;2023-12-22T12:29:52;0.50;;;0.50;;
11191;SDS011;5652;48.406;10.820;2023-12-22T12:32:22;0.70;;;0.70;;
11191;SDS011;5652;48.406;10.820;2023-12-22T12:34:50;0.35;;;0.35;;
11191;SDS011;5652;48.406;10.820;2023-12-22T12:37:18;0.30;;;0.30;;
11191;SDS011;5652;48.406;10.820;2023-12-22T12:39:45;0.60;;;0.60;;
11191;SDS011;5652;48.406;10.820;2023-12-22T12:42:14;1.75;;;0.65;;
11191;SDS011;5652;48.406;10.820;2023-12-22T12:44:44;0.65;;;0.57;;
11191;SDS011;5652;48.406;10.820;2023-12-22T12:47:12;0.60;;;0.60;;
11191;SDS011;5652;48.406;10.820;2023-12-22T12:49:40;0.50;;;0.50;;
11191;SDS011;5652;48.406;10.820;2023-12-22T12:52:11;0.50;;;0.50;;
11191;SDS011;5652;48.406;10.820;2023-12-22T12:54:38;0.40;;;0.40;;
11191;SDS011;5652;48.406;10.820;2023-12-22T12:57:05;0.80;;;0.63;;
11191;SDS011;5652;48.406;10.820;2023-12-22T12:59:33;0.47;;;0.47;;
11191;SDS011;5652;48.406;10.820;2023-12-22T13:02:01;0.57;;;0.57;;
11191;SDS011;5652;48.406;10.820;2023-12-22T13:04:36;0.40;;;0.40;;
11191;SDS011;5652;48.406;10.820;2023-12-22T13:07:03;0.50;;;0.50;;
11191;SDS011;5652;48.406;10.820;2023-12-22T13:09:31;0.47;;;0.47;;
11191;SDS011;5652;48.406;10.820;2023-12-22T13:11:59;0.75;;;0.55;;
11191;SDS011;5652;48.406;10.820;2023-12-22T13:14:27;0.40;;;0.40;;
11191;SDS011;5652;48.406;10.820;2023-12-22T13:16:54;0.33;;;0.33;;
11191;SDS011;5652;48.406;10.820;2023-12-22T13:19:23;0.55;;;0.50;;
11191;SDS011;5652;48.406;10.820;2023-12-22T13:21:51;0.70;;;0.63;;
11191;SDS011;5652;48.406;10.820;2023-12-22T13:24:18;0.40;;;0.40;;
11191;SDS011;5652;48.406;10.820;2023-12-22T13:26:45;0.77;;;0.67;;
11191;SDS011;5652;48.406;10.820;2023-12-22T13:29:12;0.60;;;0.60;;
11191;SDS011;5652;48.406;10.820;2023-12-22T13:31:40;1.40;;;0.70;;
11191;SDS011;5652;48.406;10.820;2023-12-22T13:34:08;0.82;;;0.82;;
11191;SDS011;5652;48.406;10.820;2023-12-22T13:36:37;0.70;;;0.70;;
11191;SDS011;5652;48.406;10.820;2023-12-22T13:39:04;0.85;;;0.85;;
11191;SDS011;5652;48.406;10.820;2023-12-22T13:41:32;0.68;;;0.68;;
11191;SDS011;5652;48.406;10.820;2023-12-22T13:44:02;0.60;;;0.60;;
11191;SDS011;5652;48.406;10.820;2023-12-22T13:46:29;1.02;;;0.65;;
11191;SDS011;5652;48.406;10.820;2023-12-22T13:48:56;1.10;;;0.80;;
11191;SDS011;5652;48.406;10.820;2023-12-22T13:51:23;0.40;;;0.40;;
11191;SDS011;5652;48.406;10.820;2023-12-22T13:53:52;0.70;;;0.50;;
11191;SDS011;5652;48.406;10.820;2023-12-22T13:56:19;0.60;;;0.60;;
11191;SDS011;5652;48.406;10.820;2023-12-22T13:58:47;2.92;;;1.20;;
11191;SDS011;5652;48.406;10.820;2023-12-22T14:01:14;2.78;;;1.42;;
11191;SDS011;5652;48.406;10.820;2023-12-22T14:03:42;2.85;;;1.33;;
11191;SDS011;5652;48.406;10.820;2023-12-22T14:06:09;3.05;;;1.50;;
11191;SDS011;5652;48.406;10.820;2023-12-22T14:08:37;4.00;;;1.50;;
11191;SDS011;5652;48.406;10.820;2023-12-22T14:11:07;4.47;;;1.60;;
11191;SDS011;5652;48.406;10.820;2023-12-22T14:13:34;0.60;;;0.60;;
11191;SDS011;5652;48.406;10.820;2023-12-22T14:16:05;0.65;;;0.65;;
11191;SDS011;5652;48.406;10.820;2023-12-22T14:18:32;1.42;;;1.05;;
11191;SDS011;5652;48.406;10.820;2023-12-22T14:20:59;0.85;;;0.85;;
11191;SDS011;5652;48.406;10.820;2023-12-22T14:23:29;0.88;;;0.80;;
11191;SDS011;5652;48.406;10.820;2023-12-22T14:25:56;0.85;;;0.70;;
11191;SDS011;5652;48.406;10.820;2023-12-22T14:28:24;1.20;;;0.52;;
11191;SDS011;5652;48.406;10.820;2023-12-22T14:30:52;0.32;;;0.32;;
11191;SDS011;5652;48.406;10.820;2023-12-22T14:33:19;0.60;;;0.60;;
11191;SDS011;5652;48.406;10.820;2023-12-22T14:35:47;4.05;;;1.73;;
11191;SDS011;5652;48.406;10.820;2023-12-22T14:38:14;1.98;;;1.10;;
11191;SDS011;5652;48.406;10.820;2023-12-22T14:40:41;0.40;;;0.40;;
11191;SDS011;5652;48.406;10.820;2023-12-22T14:43:08;0.40;;;0.40;;
11191;SDS011;5652;48.406;10.820;2023-12-22T14:45:36;0.45;;;0.45;;
11191;SDS011;5652;48.406;10.820;2023-12-22T14:48:04;0.40;;;0.40;;
11191;SDS011;5652;48.406;10.820;2023-12-22T14:50:31;0.30;;;0.30;;
11191;SDS011;5652;48.406;10.820;2023-12-22T14:52:58;0.57;;;0.47;;
11191;SDS011;5652;48.406;10.820;2023-12-22T14:55:25;0.60;;;0.60;;
11191;SDS011;5652;48.406;10.820;2023-12-22T14:57:53;1.20;;;0.43;;
11191;SDS011;5652;48.406;10.820;2023-12-22T15:00:20;0.47;;;0.47;;